createdAt,value
2023-12-30T00:02:17.322Z,100983.56
2023-12-30T00:04:43.863Z,100987.50
2023-12-30T00:07:10.618Z,100987.25
2023-12-30T00:09:37.142Z,100996.16
2023-12-30T00:12:04.263Z,100995.38
2023-12-30T00:14:30.741Z,100994.56
2023-12-30T00:16:57.215Z,100998.53
2023-12-30T00:19:23.748Z,100996.94
2023-12-30T00:21:50.325Z,100998.00
2023-12-30T00:24:17.637Z,101004.03
2023-12-30T00:26:44.075Z,100991.91
2023-12-30T00:29:12.938Z,101001.41
2023-12-30T00:31:39.564Z,100999.28
2023-12-30T00:34:06.136Z,101001.38
2023-12-30T00:36:32.573Z,101003.47
2023-12-30T00:38:59.001Z,101003.97
2023-12-30T00:41:26.495Z,101010.53
2023-12-30T00:43:53.055Z,101001.59
2023-12-30T00:46:22.981Z,101012.34
2023-12-30T00:48:56.830Z,101013.13
2023-12-30T00:51:24.662Z,101007.63
2023-12-30T00:53:51.168Z,101013.94
2023-12-30T00:56:17.715Z,101009.47
2023-12-30T00:58:44.477Z,101019.97
2023-12-30T01:01:11.051Z,101014.72
2023-12-30T01:03:38.071Z,101029.44
2023-12-30T01:06:04.718Z,101030.22
2023-12-30T01:08:31.325Z,101026.81
2023-12-30T01:10:57.844Z,101024.69
2023-12-30T01:13:24.417Z,101030.72
2023-12-30T01:15:50.945Z,101026.22
2023-12-30T01:18:17.495Z,101035.97
2023-12-30T01:20:44.114Z,101037.56
2023-12-30T01:23:10.581Z,101032.31
2023-12-30T01:25:39.440Z,101030.97
2023-12-30T01:28:08.799Z,101033.34
2023-12-30T01:30:37.917Z,101043.56
2023-12-30T01:33:05.512Z,101039.66
2023-12-30T01:35:32.591Z,101048.03
2023-12-30T01:37:59.029Z,101050.41
2023-12-30T01:40:28.613Z,101045.13
2023-12-30T01:42:55.152Z,101051.69
2023-12-30T01:45:21.716Z,101052.44
2023-12-30T01:47:48.221Z,101063.19
2023-12-30T01:50:14.837Z,101066.59
2023-12-30T01:52:41.387Z,101075.00
2023-12-30T01:55:09.119Z,101070.00
2023-12-30T01:57:35.819Z,101076.59
2023-12-30T02:00:02.699Z,101076.03
2023-12-30T02:02:29.634Z,101069.75
2023-12-30T02:04:56.636Z,101072.34
2023-12-30T02:07:23.179Z,101092.84
2023-12-30T02:09:50.309Z,101085.75
2023-12-30T02:12:16.849Z,101094.41
2023-12-30T02:14:43.334Z,101088.09
2023-12-30T02:17:09.936Z,101091.50
2023-12-30T02:19:37.063Z,101082.81
2023-12-30T02:22:03.808Z,101084.69
2023-12-30T02:24:30.342Z,101095.19
2023-12-30T02:26:56.921Z,101091.22
2023-12-30T02:29:23.372Z,101098.06
2023-12-30T02:31:50.036Z,101097.50
2023-12-30T02:34:18.915Z,101098.53
2023-12-30T02:36:46.264Z,101105.84
2023-12-30T02:39:12.968Z,101114.75
2023-12-30T02:41:39.625Z,101106.63
2023-12-30T02:44:06.285Z,101113.19
2023-12-30T02:46:33.010Z,101115.31
2023-12-30T02:49:04.176Z,101127.09
2023-12-30T02:51:30.901Z,101131.53
2023-12-30T02:53:57.625Z,101128.91
2023-12-30T02:56:27.760Z,101126.03
2023-12-30T02:58:57.207Z,101125.25
2023-12-30T03:01:28.768Z,101121.28
2023-12-30T03:03:57.080Z,101127.88
2023-12-30T03:06:23.671Z,101124.22
2023-12-30T03:08:50.636Z,101129.69
2023-12-30T03:11:17.313Z,101128.91
2023-12-30T03:13:43.982Z,101132.31
2023-12-30T03:16:17.494Z,101132.31
2023-12-30T03:18:44.940Z,101134.16
2023-12-30T03:21:15.028Z,101135.97
2023-12-30T03:23:41.792Z,101130.97
2023-12-30T03:26:11.931Z,101142.28
2023-12-30T03:28:38.594Z,101144.38
2023-12-30T03:31:06.461Z,101127.09
2023-12-30T03:33:32.949Z,101121.53
2023-12-30T03:35:59.989Z,101132.03
2023-12-30T03:38:26.476Z,101142.78
2023-12-30T03:40:52.945Z,101130.69
2023-12-30T03:43:19.365Z,101143.81
2023-12-30T03:45:45.819Z,101141.19
2023-12-30T03:48:12.552Z,101143.81
2023-12-30T03:50:39.061Z,101145.88
2023-12-30T03:53:06.420Z,101140.09
2023-12-30T03:55:33.103Z,101155.84
2023-12-30T03:57:59.840Z,101138.75
2023-12-30T04:00:26.353Z,101149.81
2023-12-30T04:02:52.857Z,101149.81
2023-12-30T04:05:19.499Z,101146.63
2023-12-30T04:07:46.451Z,101146.13
2023-12-30T04:10:14.451Z,101153.47
2023-12-30T04:12:40.999Z,101152.69
2023-12-30T04:15:09.142Z,101152.69
2023-12-30T04:17:35.609Z,101159.72
2023-12-30T04:20:02.455Z,101156.09
2023-12-30T04:22:29.880Z,101166.56
2023-12-30T04:24:58.701Z,101156.09
2023-12-30T04:27:25.322Z,101158.47
2023-12-30T04:29:52.134Z,101164.50
2023-12-30T04:32:21.946Z,101167.91
2023-12-30T04:34:50.218Z,101168.72
2023-12-30T04:37:17.612Z,101170.78
2023-12-30T04:39:44.157Z,101162.94
2023-12-30T04:42:10.918Z,101164.25
2023-12-30T04:44:37.438Z,101162.94
2023-12-30T04:47:04.017Z,101163.47
2023-12-30T04:49:30.592Z,101158.72
2023-12-30T04:51:57.188Z,101164.97
2023-12-30T04:54:23.718Z,101171.81
2023-12-30T04:56:50.815Z,101183.09
2023-12-30T04:59:17.339Z,101178.09
2023-12-30T05:01:43.838Z,101171.22
2023-12-30T05:04:10.830Z,101178.28
2023-12-30T05:06:37.947Z,101178.84
2023-12-30T05:09:05.567Z,101197.22
2023-12-30T05:11:32.009Z,101199.25
2023-12-30T05:13:58.511Z,101198.72
2023-12-30T05:16:24.999Z,101196.09
2023-12-30T05:18:51.567Z,101195.31
2023-12-30T05:21:18.945Z,101200.03
2023-12-30T05:23:45.676Z,101195.50
2023-12-30T05:26:15.413Z,101198.66
2023-12-30T05:28:42.077Z,101196.81
2023-12-30T05:31:08.686Z,101195.69
2023-12-30T05:33:35.442Z,101201.94
2023-12-30T05:36:02.064Z,101216.47
2023-12-30T05:38:28.499Z,101211.22
2023-12-30T05:40:54.999Z,101207.31
2023-12-30T05:43:23.040Z,101208.63
2023-12-30T05:45:50.615Z,101214.88
2023-12-30T05:48:17.590Z,101223.00
2023-12-30T05:50:44.171Z,101225.88
2023-12-30T05:53:12.195Z,101215.63
2023-12-30T05:55:39.740Z,101221.19
2023-12-30T05:58:06.391Z,101221.41
2023-12-30T06:00:32.938Z,101226.66
2023-12-30T06:02:59.542Z,101227.16
2023-12-30T06:05:27.010Z,101228.44
2023-12-30T06:07:53.812Z,101227.31
2023-12-30T06:10:20.671Z,101227.63
2023-12-30T06:12:47.163Z,101230.50
2023-12-30T06:15:13.754Z,101229.72
2023-12-30T06:17:40.473Z,101226.00
2023-12-30T06:20:09.453Z,101233.03
2023-12-30T06:22:36.254Z,101233.88
2023-12-30T06:25:04.740Z,101247.75
2023-12-30T06:27:31.213Z,101246.66
2023-12-30T06:29:57.640Z,101233.56
2023-12-30T06:32:24.069Z,101250.84
2023-12-30T06:34:50.564Z,101245.31
2023-12-30T06:37:17.110Z,101238.47
2023-12-30T06:39:44.667Z,101237.63
2023-12-30T06:42:11.186Z,101241.59
2023-12-30T06:44:37.648Z,101252.63
2023-12-30T06:47:06.255Z,101248.94
2023-12-30T06:49:32.865Z,101231.59
2023-12-30T06:51:59.418Z,101240.59
2023-12-30T06:54:26.883Z,101228.97
2023-12-30T06:56:54.567Z,101237.44
2023-12-30T06:59:21.358Z,101242.94
2023-12-30T07:01:47.877Z,101246.56
2023-12-30T07:04:15.459Z,101246.84
2023-12-30T07:06:42.095Z,101252.09
2023-12-30T07:09:08.547Z,101260.97
2023-12-30T07:11:35.284Z,101249.13
2023-12-30T07:14:01.821Z,101257.25
2023-12-30T07:16:28.374Z,101225.50
2023-12-30T07:18:55.104Z,101246.94
2023-12-30T07:21:21.735Z,101260.28
2023-12-30T07:23:48.266Z,101251.88
2023-12-30T07:26:14.850Z,101267.00
2023-12-30T07:28:41.377Z,101261.47
2023-12-30T07:31:08.011Z,101272.66
2023-12-30T07:33:36.724Z,101267.91
2023-12-30T07:36:05.239Z,101277.03
2023-12-30T07:38:32.033Z,101278.88
2023-12-30T07:40:58.478Z,101281.72
2023-12-30T07:43:25.579Z,101293.22
2023-12-30T07:45:52.270Z,101285.88
2023-12-30T07:48:18.898Z,101295.53
2023-12-30T07:50:45.387Z,101304.44
2023-12-30T07:53:12.135Z,101314.91
2023-12-30T07:55:38.776Z,101315.69
2023-12-30T07:58:05.369Z,101319.91
2023-12-30T08:00:32.286Z,101308.84
2023-12-30T08:02:58.773Z,101315.38
2023-12-30T08:05:25.282Z,101319.84
2023-12-30T08:07:51.807Z,101322.13
2023-12-30T08:10:19.459Z,101330.78
2023-12-30T08:12:45.895Z,101329.41
2023-12-30T08:15:12.484Z,101332.28
2023-12-30T08:17:39.234Z,101331.47
2023-12-30T08:20:06.622Z,101327.03
2023-12-30T08:22:33.659Z,101334.88
2023-12-30T08:25:00.520Z,101345.38
2023-12-30T08:27:27.178Z,101348.22
2023-12-30T08:29:53.713Z,101353.94
2023-12-30T08:32:20.194Z,101356.34
2023-12-30T08:34:46.751Z,101358.59
2023-12-30T08:37:13.299Z,101355.97
2023-12-30T08:39:39.903Z,101362.34
2023-12-30T08:42:06.929Z,101354.72
2023-12-30T08:44:33.533Z,101367.81
2023-12-30T08:47:00.090Z,101366.22
2023-12-30T08:49:26.595Z,101372.28
2023-12-30T08:51:53.166Z,101371.22
2023-12-30T08:54:19.879Z,101366.22
2023-12-30T08:56:46.482Z,101371.69
2023-12-30T08:59:12.934Z,101369.66
2023-12-30T09:01:39.520Z,101372.59
2023-12-30T09:04:06.118Z,101375.88
2023-12-30T09:06:32.584Z,101368.31
2023-12-30T09:08:59.007Z,101364.91
2023-12-30T09:11:25.478Z,101362.16
2023-12-30T09:13:54.478Z,101368.56
2023-12-30T09:16:22.107Z,101371.59
2023-12-30T09:18:48.778Z,101367.81
2023-12-30T09:21:15.524Z,101367.66
2023-12-30T09:23:42.399Z,101368.28
2023-12-30T09:26:09.251Z,101368.81
2023-12-30T09:28:36.059Z,101367.31
2023-12-30T09:31:02.858Z,101365.03
2023-12-30T09:33:29.552Z,101370.97
2023-12-30T09:35:56.335Z,101372.66
2023-12-30T09:38:25.678Z,101387.09
2023-12-30T09:40:53.532Z,101368.66
2023-12-30T09:43:24.088Z,101375.00
2023-12-30T09:45:52.394Z,101378.50
2023-12-30T09:48:26.282Z,101370.88
2023-12-30T09:50:54.472Z,101377.31
2023-12-30T09:53:23.734Z,101383.66
2023-12-30T09:55:54.194Z,101380.63
2023-12-30T09:58:22.688Z,101372.84
2023-12-30T10:00:49.712Z,101377.56
2023-12-30T10:03:19.465Z,101379.81
2023-12-30T10:05:46.334Z,101383.88
2023-12-30T10:08:13.050Z,101379.16
2023-12-30T10:10:47.926Z,101384.72
2023-12-30T10:13:16.236Z,101384.31
2023-12-30T10:15:45.592Z,101393.44
2023-12-30T10:18:14.138Z,101385.88
2023-12-30T10:20:42.824Z,101399.81
2023-12-30T10:23:09.436Z,101389.84
2023-12-30T10:25:36.370Z,101386.63
2023-12-30T10:28:03.491Z,101398.22
2023-12-30T10:30:31.739Z,101385.81
2023-12-30T10:33:08.261Z,101406.09
2023-12-30T10:35:35.278Z,101393.19
2023-12-30T10:38:05.374Z,101385.88
2023-12-30T10:40:32.313Z,101399.06
2023-12-30T10:42:58.769Z,101400.41
2023-12-30T10:45:25.327Z,101399.44
2023-12-30T10:47:52.633Z,101391.34
2023-12-30T10:50:19.544Z,101382.09
2023-12-30T10:52:52.895Z,101371.06
2023-12-30T10:55:20.589Z,101372.91
2023-12-30T10:57:54.897Z,101378.75
2023-12-30T11:00:21.758Z,101369.03
2023-12-30T11:02:51.291Z,101365.13
2023-12-30T11:05:40.073Z,101365.19
2023-12-30T11:08:06.721Z,101364.66
2023-12-30T11:10:34.581Z,101361.81
2023-12-30T11:13:01.295Z,101357.16
2023-12-30T11:15:32.105Z,101359.78
2023-12-30T11:17:59.719Z,101365.34
2023-12-30T11:20:33.816Z,101364.03
2023-12-30T11:23:05.235Z,101342.41
2023-12-30T11:25:48.310Z,101363.81
2023-12-30T11:28:18.144Z,101359.09
2023-12-30T11:30:47.283Z,101347.25
2023-12-30T11:33:15.221Z,101346.53
2023-12-30T11:35:41.936Z,101331.31
2023-12-30T11:38:12.248Z,101340.00
2023-12-30T11:40:50.573Z,101346.06
2023-12-30T11:43:17.562Z,101336.03
2023-12-30T11:45:44.020Z,101337.69
2023-12-30T11:48:10.710Z,101342.97
2023-12-30T11:50:37.189Z,101335.88
2023-12-30T11:53:04.387Z,101339.59
2023-12-30T11:55:31.140Z,101335.38
2023-12-30T11:57:57.723Z,101327.78
2023-12-30T12:00:27.251Z,101329.88
2023-12-30T12:02:59.028Z,101326.75
2023-12-30T12:05:25.557Z,101299.88
2023-12-30T12:07:52.033Z,101316.78
2023-12-30T12:10:19.219Z,101312.63
2023-12-30T12:12:46.953Z,101318.38
2023-12-30T12:15:14.346Z,101303.09
2023-12-30T12:17:42.197Z,101312.34
2023-12-30T12:20:15.264Z,101318.41
2023-12-30T12:22:50.142Z,101305.78
2023-12-30T12:25:17.036Z,101291.56
2023-12-30T12:27:43.518Z,101307.41
2023-12-30T12:30:13.963Z,101307.66
2023-12-30T12:32:41.763Z,101306.88
2023-12-30T12:35:08.672Z,101298.44
2023-12-30T12:37:37.078Z,101291.69
2023-12-30T12:40:05.974Z,101292.47
2023-12-30T12:42:34.284Z,101297.47
2023-12-30T12:45:00.853Z,101288.53
2023-12-30T12:47:27.851Z,101291.16
2023-12-30T12:50:02.823Z,101285.38
2023-12-30T12:52:31.442Z,101267.97
2023-12-30T12:55:09.789Z,101277.47
2023-12-30T12:57:37.127Z,101277.22
2023-12-30T13:00:09.145Z,101268.84
2023-12-30T13:02:36.337Z,101261.97
2023-12-30T13:05:03.542Z,101259.06
2023-12-30T13:07:33.388Z,101254.91
2023-12-30T13:10:22.065Z,101252.81
2023-12-30T13:12:57.601Z,101247.31
2023-12-30T13:15:26.197Z,101246.81
2023-12-30T13:17:55.106Z,101230.72
2023-12-30T13:20:21.817Z,101218.13
2023-12-30T13:23:07.570Z,101225.50
2023-12-30T13:25:41.071Z,101219.69
2023-12-30T13:28:07.742Z,101189.91
2023-12-30T13:30:35.605Z,101230.53
2023-12-30T13:33:05.577Z,101211.84
2023-12-30T13:35:41.768Z,101209.47
2023-12-30T13:38:13.714Z,101206.09
2023-12-30T13:40:42.508Z,101205.59
2023-12-30T13:43:10.729Z,101206.38
2023-12-30T13:45:42.876Z,101197.94
2023-12-30T13:48:15.362Z,101197.44
2023-12-30T13:50:53.490Z,101195.56
2023-12-30T13:53:22.318Z,101194.00
2023-12-30T13:55:49.169Z,101192.44
2023-12-30T13:58:15.949Z,101192.44
2023-12-30T14:00:43.837Z,101178.78
2023-12-30T14:03:10.743Z,101189.06
2023-12-30T14:05:42.017Z,101187.19
2023-12-30T14:08:27.271Z,101179.81
2023-12-30T14:10:55.275Z,101178.25
2023-12-30T14:13:24.124Z,101184.06
2023-12-30T14:15:52.478Z,101184.31
2023-12-30T14:18:19.352Z,101181.69
2023-12-30T14:20:47.291Z,101177.72
2023-12-30T14:23:13.861Z,101180.38
2023-12-30T14:25:42.130Z,101174.06
2023-12-30T14:28:08.996Z,101175.63
2023-12-30T14:30:36.035Z,101171.97
2023-12-30T14:33:02.971Z,101168.28
2023-12-30T14:35:29.788Z,101157.50
2023-12-30T14:37:56.311Z,101166.44
2023-12-30T14:40:23.473Z,101159.31
2023-12-30T14:42:51.893Z,101158.53
2023-12-30T14:45:20.402Z,101158.81
2023-12-30T14:47:47.571Z,101166.47
2023-12-30T14:50:14.515Z,101164.34
2023-12-30T14:52:41.626Z,101158.03
2023-12-30T14:55:10.910Z,101162.78
2023-12-30T14:57:41.421Z,101160.69
2023-12-30T15:00:15.404Z,101165.16
2023-12-30T15:02:43.032Z,101147.78
2023-12-30T15:05:15.658Z,101141.19
2023-12-30T15:07:44.946Z,101152.25
2023-12-30T15:10:14.312Z,101149.91
2023-12-30T15:12:42.409Z,101142.28
2023-12-30T15:15:09.376Z,101134.66
2023-12-30T15:17:36.118Z,101128.34
2023-12-30T15:20:03.195Z,101109.09
2023-12-30T15:22:31.076Z,101130.97
2023-12-30T15:24:58.186Z,101124.91
2023-12-30T15:27:24.946Z,101115.19
2023-12-30T15:29:51.584Z,101108.84
2023-12-30T15:32:18.188Z,101111.22
2023-12-30T15:34:45.010Z,101106.19
2023-12-30T15:37:15.083Z,101114.88
2023-12-30T15:39:42.064Z,101110.16
2023-12-30T15:42:09.279Z,101101.72
2023-12-30T15:44:39.388Z,101103.84
2023-12-30T15:47:08.294Z,101099.34
2023-12-30T15:49:35.527Z,101086.47
2023-12-30T15:52:02.310Z,101089.88
2023-12-30T15:54:28.977Z,101103.28
2023-12-30T15:56:55.601Z,101090.38
2023-12-30T15:59:22.143Z,101110.66
2023-12-30T16:01:54.881Z,101097.25
2023-12-30T16:04:21.369Z,101084.84
2023-12-30T16:06:47.969Z,101105.91
2023-12-30T16:09:14.449Z,101098.53
2023-12-30T16:11:40.929Z,101079.09
2023-12-30T16:14:09.347Z,101084.09
2023-12-30T16:16:37.486Z,101085.13
2023-12-30T16:19:04.107Z,101076.19
2023-12-30T16:21:30.892Z,101088.28
2023-12-30T16:23:57.419Z,101077.25
2023-12-30T16:26:25.016Z,101082.25
2023-12-30T16:28:51.483Z,101089.38
2023-12-30T16:31:17.976Z,101097.78
2023-12-30T16:33:46.714Z,101081.22
2023-12-30T16:36:14.304Z,101087.53
2023-12-30T16:38:40.887Z,101081.50
2023-12-30T16:41:07.428Z,101082.28
2023-12-30T16:43:36.987Z,101087.28
2023-12-30T16:46:03.950Z,101079.66
2023-12-30T16:48:30.532Z,101077.28
2023-12-30T16:50:57.062Z,101082.53
2023-12-30T16:53:23.540Z,101081.50
2023-12-30T16:55:51.629Z,101078.88
2023-12-30T16:58:19.799Z,101084.94
2023-12-30T17:00:47.913Z,101077.81
2023-12-30T17:03:15.087Z,101077.81
2023-12-30T17:05:44.715Z,101078.63
2023-12-30T17:08:11.264Z,101082.03
2023-12-30T17:10:37.895Z,101076.00
2023-12-30T17:13:04.731Z,101067.03
2023-12-30T17:15:31.376Z,101065.22
2023-12-30T17:17:57.835Z,101062.03
2023-12-30T17:20:24.316Z,101070.19
2023-12-30T17:22:50.791Z,101067.56
2023-12-30T17:25:23.465Z,101073.38
2023-12-30T17:27:50.043Z,101061.00
2023-12-30T17:30:16.565Z,101064.94
2023-12-30T17:32:43.177Z,101056.53
2023-12-30T17:35:09.794Z,101061.53
2023-12-30T17:37:37.325Z,101052.59
2023-12-30T17:40:05.163Z,101042.06
2023-12-30T17:42:31.658Z,101043.91
2023-12-30T17:44:58.098Z,101050.75
2023-12-30T17:47:24.565Z,101043.91
2023-12-30T17:49:51.085Z,101040.22
2023-12-30T17:52:17.651Z,101037.59
2023-12-30T17:54:44.189Z,101036.81
2023-12-30T17:57:10.774Z,101028.66
2023-12-30T17:59:37.173Z,101028.66
2023-12-30T18:02:03.689Z,101014.44
2023-12-30T18:04:30.223Z,101003.38
2023-12-30T18:06:56.742Z,100999.97
2023-12-30T18:09:23.266Z,100999.19
2023-12-30T18:11:49.818Z,101004.16
2023-12-30T18:14:18.752Z,101004.72
2023-12-30T18:16:45.280Z,100993.13
2023-12-30T18:19:12.492Z,100989.97
2023-12-30T18:21:39.169Z,100986.31
2023-12-30T18:24:05.966Z,100986.00
2023-12-30T18:26:32.435Z,100982.34
2023-12-30T18:28:58.970Z,100981.31
2023-12-30T18:31:25.432Z,100974.72
2023-12-30T18:33:51.997Z,100975.22
2023-12-30T18:36:18.682Z,100972.88
2023-12-30T18:38:45.165Z,100962.63
2023-12-30T18:41:11.634Z,100971.56
2023-12-30T18:43:38.616Z,100952.13
2023-12-30T18:46:05.113Z,100953.66
2023-12-30T18:48:31.663Z,100941.03
2023-12-30T18:50:58.296Z,100938.97
2023-12-30T18:53:24.823Z,100939.47
2023-12-30T18:55:51.436Z,100931.34
2023-12-30T18:58:18.005Z,100938.97
2023-12-30T19:00:44.743Z,100922.13
2023-12-30T19:03:11.435Z,100926.31
2023-12-30T19:05:38.253Z,100919.75
2023-12-30T19:08:05.053Z,100920.25
2023-12-30T19:10:31.508Z,100917.38
2023-12-30T19:12:58.541Z,100921.06
2023-12-30T19:15:25.228Z,100920.81
2023-12-30T19:17:51.857Z,100936.03
2023-12-30T19:20:18.396Z,100922.13
2023-12-30T19:22:46.136Z,100923.97
2023-12-30T19:25:12.992Z,100923.19
2023-12-30T19:27:39.530Z,100914.22
2023-12-30T19:30:06.720Z,100908.19
2023-12-30T19:32:33.286Z,100911.31
2023-12-30T19:35:01.024Z,100901.06
2023-12-30T19:37:28.045Z,100905.81
2023-12-30T19:39:54.540Z,100898.19
2023-12-30T19:42:21.005Z,100895.81
2023-12-30T19:44:47.449Z,100886.63
2023-12-30T19:47:14.214Z,100880.56
2023-12-30T19:49:40.771Z,100886.38
2023-12-30T19:52:07.246Z,100871.91
2023-12-30T19:54:33.778Z,100882.94
2023-12-30T19:57:00.309Z,100872.69
2023-12-30T19:59:27.253Z,100879.53
2023-12-30T20:01:53.807Z,100882.69
2023-12-30T20:04:20.505Z,100879.25
2023-12-30T20:06:48.904Z,100872.69
2023-12-30T20:09:16.058Z,100864.28
2023-12-30T20:11:42.558Z,100870.03
2023-12-30T20:14:09.067Z,100857.41
2023-12-30T20:16:35.545Z,100854.53
2023-12-30T20:19:02.123Z,100853.22
2023-12-30T20:21:28.613Z,100848.50
2023-12-30T20:23:55.026Z,100846.66
2023-12-30T20:26:21.457Z,100842.19
2023-12-30T20:28:47.932Z,100842.97
2023-12-30T20:31:18.343Z,100834.31
2023-12-30T20:33:45.440Z,100839.31
2023-12-30T20:36:19.859Z,100811.69
2023-12-30T20:38:46.406Z,100816.16
2023-12-30T20:41:13.050Z,100814.84
2023-12-30T20:43:39.548Z,100819.81
2023-12-30T20:46:09.858Z,100817.19
2023-12-30T20:48:42.479Z,100804.84
2023-12-30T20:51:09.017Z,100809.06
2023-12-30T20:53:35.557Z,100802.75
2023-12-30T20:56:03.055Z,100802.50
2023-12-30T20:58:30.813Z,100794.06
2023-12-30T21:00:57.396Z,100792.25
2023-12-30T21:03:23.910Z,100789.88
2023-12-30T21:05:52.744Z,100793.53
2023-12-30T21:08:19.352Z,100789.34
2023-12-30T21:10:45.892Z,100785.91
2023-12-30T21:13:12.427Z,100772.50
2023-12-30T21:15:38.838Z,100773.81
2023-12-30T21:18:05.721Z,100761.69
2023-12-30T21:20:32.225Z,100766.69
2023-12-30T21:22:58.741Z,100761.94
2023-12-30T21:25:27.515Z,100752.75
2023-12-30T21:27:54.495Z,100749.84
2023-12-30T21:30:22.808Z,100744.03
2023-12-30T21:32:50.628Z,100741.94
2023-12-30T21:35:19.696Z,100745.59
2023-12-30T21:37:54.080Z,100742.19
2023-12-30T21:40:20.705Z,100742.19
2023-12-30T21:42:47.425Z,100735.31
2023-12-30T21:45:14.978Z,100727.41
2023-12-30T21:47:42.920Z,100727.66
2023-12-30T21:50:09.981Z,100716.09
2023-12-30T21:52:38.878Z,100703.72
2023-12-30T21:55:06.700Z,100703.16
2023-12-30T21:57:33.356Z,100692.66
2023-12-30T22:00:00.738Z,100691.59
2023-12-30T22:02:28.344Z,100686.06
2023-12-30T22:04:54.934Z,100678.97
2023-12-30T22:07:21.577Z,100681.84
2023-12-30T22:09:48.522Z,100676.88
2023-12-30T22:12:15.016Z,100664.25
2023-12-30T22:14:41.409Z,100673.19
2023-12-30T22:17:11.285Z,100666.09
2023-12-30T22:19:38.107Z,100663.72
2023-12-30T22:22:04.800Z,100671.88
2023-12-30T22:24:31.347Z,100670.84
2023-12-30T22:26:57.873Z,100670.31
2023-12-30T22:29:24.368Z,100674.22
2023-12-30T22:31:50.990Z,100649.78
2023-12-30T22:34:17.473Z,100658.94
2023-12-30T22:36:43.981Z,100652.13
2023-12-30T22:39:12.013Z,100655.53
2023-12-30T22:41:38.825Z,100647.16
2023-12-30T22:44:05.466Z,100632.41
2023-12-30T22:46:32.050Z,100628.53
2023-12-30T22:48:58.612Z,100634.78
2023-12-30T22:51:25.152Z,100626.13
2023-12-30T22:53:52.209Z,100630.31
2023-12-30T22:56:18.718Z,100617.19
2023-12-30T22:58:46.258Z,100615.88
2023-12-30T23:01:13.451Z,100617.69
2023-12-30T23:03:40.391Z,100625.59
2023-12-30T23:06:07.076Z,100616.63
2023-12-30T23:08:33.643Z,100623.47
2023-12-30T23:11:00.141Z,100608.19
2023-12-30T23:13:26.720Z,100616.06
2023-12-30T23:15:54.562Z,100611.31
2023-12-30T23:18:21.160Z,100608.97
2023-12-30T23:20:47.654Z,100600.28
2023-12-30T23:23:14.086Z,100604.22
2023-12-30T23:25:40.524Z,100600.28
2023-12-30T23:28:07.029Z,100591.34
2023-12-30T23:30:33.601Z,100572.66
2023-12-30T23:33:00.200Z,100561.41
2023-12-30T23:35:26.838Z,100563.22
2023-12-30T23:37:53.415Z,100563.22
2023-12-30T23:40:20.707Z,100558.75
2023-12-30T23:42:47.202Z,100557.97
2023-12-30T23:45:13.655Z,100549.28
2023-12-30T23:47:40.181Z,100549.00
2023-12-30T23:50:06.780Z,100531.94
2023-12-30T23:52:33.421Z,100537.69
2023-12-30T23:55:00.011Z,100523.25
2023-12-30T23:57:26.495Z,100522.19
2023-12-30T23:59:52.961Z,100520.63
